sensor_id;sensor_type;location;lat;lon;timestamp;P1;P2;P0
42410;PMS5003;28056;51.112;0.984;2022-08-07T00:00:18;5;5;
42410;PMS5003;28056;51.112;0.984;2022-08-07T00:04:48;5;5;
42410;PMS5003;28056;51.112;0.984;2022-08-07T00:07:15;5;5;
42410;PMS5003;28056;51.112;0.984;2022-08-07T00:09:42;5;5;
42410;PMS5003;28056;51.112;0.984;2022-08-07T00:12:10;5;5;
42410;PMS5003;28056;51.112;0.984;2022-08-07T00:14:38;7;6;
42410;PMS5003;28056;51.112;0.984;2022-08-07T00:17:05;4;4;
42410;PMS5003;28056;51.112;0.984;2022-08-07T00:19:33;4;4;
42410;PMS5003;28056;51.112;0.984;2022-08-07T00:22:01;6;6;
42410;PMS5003;28056;51.112;0.984;2022-08-07T00:24:28;5;5;
42410;PMS5003;28056;51.112;0.984;2022-08-07T00:26:56;6;6;
42410;PMS5003;28056;51.112;0.984;2022-08-07T00:29:24;6;5;
42410;PMS5003;28056;51.112;0.984;2022-08-07T00:31:52;6;6;
42410;PMS5003;28056;51.112;0.984;2022-08-07T00:34:19;5;5;
42410;PMS5003;28056;51.112;0.984;2022-08-07T00:36:47;6;6;
42410;PMS5003;28056;51.112;0.984;2022-08-07T00:39:15;6;6;
42410;PMS5003;28056;51.112;0.984;2022-08-07T00:41:47;6;6;
42410;PMS5003;28056;51.112;0.984;2022-08-07T00:44:15;5;5;
42410;PMS5003;28056;51.112;0.984;2022-08-07T00:46:43;5;5;
42410;PMS5003;28056;51.112;0.984;2022-08-07T00:49:11;5;5;
42410;PMS5003;28056;51.112;0.984;2022-08-07T00:51:38;6;6;
42410;PMS5003;28056;51.112;0.984;2022-08-07T00:54:07;7;6;
42410;PMS5003;28056;51.112;0.984;2022-08-07T00:56:36;9;7;
42410;PMS5003;28056;51.112;0.984;2022-08-07T00:59:03;6;6;
42410;PMS5003;28056;51.112;0.984;2022-08-07T01:01:31;9;6;
42410;PMS5003;28056;51.112;0.984;2022-08-07T01:03:59;7;7;
42410;PMS5003;28056;51.112;0.984;2022-08-07T01:06:31;6;6;
42410;PMS5003;28056;51.112;0.984;2022-08-07T01:08:59;5;5;
42410;PMS5003;28056;51.112;0.984;2022-08-07T01:11:28;8;6;
42410;PMS5003;28056;51.112;0.984;2022-08-07T01:13:56;6;6;
42410;PMS5003;28056;51.112;0.984;2022-08-07T01:16:23;7;7;
42410;PMS5003;28056;51.112;0.984;2022-08-07T01:18:51;5;5;
42410;PMS5003;28056;51.112;0.984;2022-08-07T01:21:19;5;5;
42410;PMS5003;28056;51.112;0.984;2022-08-07T01:23:48;5;5;
42410;PMS5003;28056;51.112;0.984;2022-08-07T01:26:17;5;5;
42410;PMS5003;28056;51.112;0.984;2022-08-07T01:28:46;7;7;
42410;PMS5003;28056;51.112;0.984;2022-08-07T01:31:15;10;8;
42410;PMS5003;28056;51.112;0.984;2022-08-07T01:33:43;6;6;
42410;PMS5003;28056;51.112;0.984;2022-08-07T01:36:10;6;6;
42410;PMS5003;28056;51.112;0.984;2022-08-07T01:38:38;8;7;
42410;PMS5003;28056;51.112;0.984;2022-08-07T01:41:06;6;6;
42410;PMS5003;28056;51.112;0.984;2022-08-07T01:43:36;7;5;
42410;PMS5003;28056;51.112;0.984;2022-08-07T01:46:04;8;5;
42410;PMS5003;28056;51.112;0.984;2022-08-07T01:48:32;10;7;
42410;PMS5003;28056;51.112;0.984;2022-08-07T01:51:01;5;5;
42410;PMS5003;28056;51.112;0.984;2022-08-07T01:53:32;7;7;
42410;PMS5003;28056;51.112;0.984;2022-08-07T01:56:05;10;8;
42410;PMS5003;28056;51.112;0.984;2022-08-07T01:58:37;5;5;
42410;PMS5003;28056;51.112;0.984;2022-08-07T02:01:19;6;6;
42410;PMS5003;28056;51.112;0.984;2022-08-07T02:03:53;9;9;
42410;PMS5003;28056;51.112;0.984;2022-08-07T02:06:25;10;8;
42410;PMS5003;28056;51.112;0.984;2022-08-07T02:08:56;8;7;
42410;PMS5003;28056;51.112;0.984;2022-08-07T02:11:25;7;7;
42410;PMS5003;28056;51.112;0.984;2022-08-07T02:13:52;6;6;
42410;PMS5003;28056;51.112;0.984;2022-08-07T02:16:22;7;7;
42410;PMS5003;28056;51.112;0.984;2022-08-07T02:18:51;6;5;
42410;PMS5003;28056;51.112;0.984;2022-08-07T02:21:20;8;6;
42410;PMS5003;28056;51.112;0.984;2022-08-07T02:23:49;8;6;
42410;PMS5003;28056;51.112;0.984;2022-08-07T02:26:18;6;6;
42410;PMS5003;28056;51.112;0.984;2022-08-07T02:28:46;8;6;
42410;PMS5003;28056;51.112;0.984;2022-08-07T02:31:14;9;7;
42410;PMS5003;28056;51.112;0.984;2022-08-07T02:33:43;6;6;
42410;PMS5003;28056;51.112;0.984;2022-08-07T02:36:13;6;6;
42410;PMS5003;28056;51.112;0.984;2022-08-07T02:38:41;7;6;
42410;PMS5003;28056;51.112;0.984;2022-08-07T02:41:11;6;6;
42410;PMS5003;28056;51.112;0.984;2022-08-07T02:43:40;6;6;
42410;PMS5003;28056;51.112;0.984;2022-08-07T02:46:09;6;5;
42410;PMS5003;28056;51.112;0.984;2022-08-07T02:48:38;7;7;
42410;PMS5003;28056;51.112;0.984;2022-08-07T02:51:07;10;7;
42410;PMS5003;28056;51.112;0.984;2022-08-07T02:53:39;7;7;
42410;PMS5003;28056;51.112;0.984;2022-08-07T02:56:12;8;8;
42410;PMS5003;28056;51.112;0.984;2022-08-07T02:58:43;10;6;
42410;PMS5003;28056;51.112;0.984;2022-08-07T03:01:12;6;6;
42410;PMS5003;28056;51.112;0.984;2022-08-07T03:03:40;6;6;
42410;PMS5003;28056;51.112;0.984;2022-08-07T03:06:09;7;7;
42410;PMS5003;28056;51.112;0.984;2022-08-07T03:08:37;7;6;
42410;PMS5003;28056;51.112;0.984;2022-08-07T03:11:05;7;7;
42410;PMS5003;28056;51.112;0.984;2022-08-07T03:13:33;10;9;
42410;PMS5003;28056;51.112;0.984;2022-08-07T03:16:01;8;8;
42410;PMS5003;28056;51.112;0.984;2022-08-07T03:18:29;8;8;
42410;PMS5003;28056;51.112;0.984;2022-08-07T03:20:56;8;8;
42410;PMS5003;28056;51.112;0.984;2022-08-07T03:23:24;11;8;
42410;PMS5003;28056;51.112;0.984;2022-08-07T03:25:55;10;10;
42410;PMS5003;28056;51.112;0.984;2022-08-07T03:28:25;12;12;
42410;PMS5003;28056;51.112;0.984;2022-08-07T03:30:55;11;11;
42410;PMS5003;28056;51.112;0.984;2022-08-07T03:33:23;11;11;
42410;PMS5003;28056;51.112;0.984;2022-08-07T03:35:51;10;10;
42410;PMS5003;28056;51.112;0.984;2022-08-07T03:38:19;8;8;
42410;PMS5003;28056;51.112;0.984;2022-08-07T03:40:46;11;10;
42410;PMS5003;28056;51.112;0.984;2022-08-07T03:43:16;11;8;
42410;PMS5003;28056;51.112;0.984;2022-08-07T03:45:43;10;10;
42410;PMS5003;28056;51.112;0.984;2022-08-07T03:48:11;12;12;
42410;PMS5003;28056;51.112;0.984;2022-08-07T03:50:39;9;7;
42410;PMS5003;28056;51.112;0.984;2022-08-07T03:53:07;10;9;
42410;PMS5003;28056;51.112;0.984;2022-08-07T03:55:35;7;6;
42410;PMS5003;28056;51.112;0.984;2022-08-07T03:58:03;11;11;
42410;PMS5003;28056;51.112;0.984;2022-08-07T04:00:31;10;7;
42410;PMS5003;28056;51.112;0.984;2022-08-07T04:03:00;12;11;
42410;PMS5003;28056;51.112;0.984;2022-08-07T04:05:28;11;11;
42410;PMS5003;28056;51.112;0.984;2022-08-07T04:07:56;9;6;
42410;PMS5003;28056;51.112;0.984;2022-08-07T04:10:24;13;11;
42410;PMS5003;28056;51.112;0.984;2022-08-07T04:12:52;9;9;
42410;PMS5003;28056;51.112;0.984;2022-08-07T04:15:20;10;10;
42410;PMS5003;28056;51.112;0.984;2022-08-07T04:17:48;10;10;
42410;PMS5003;28056;51.112;0.984;2022-08-07T04:20:15;7;7;
42410;PMS5003;28056;51.112;0.984;2022-08-07T04:22:43;10;9;
42410;PMS5003;28056;51.112;0.984;2022-08-07T04:25:11;9;9;
42410;PMS5003;28056;51.112;0.984;2022-08-07T04:27:39;9;9;
42410;PMS5003;28056;51.112;0.984;2022-08-07T04:30:07;9;9;
42410;PMS5003;28056;51.112;0.984;2022-08-07T04:32:35;9;9;
42410;PMS5003;28056;51.112;0.984;2022-08-07T04:35:04;7;7;
42410;PMS5003;28056;51.112;0.984;2022-08-07T04:37:33;6;6;
42410;PMS5003;28056;51.112;0.984;2022-08-07T04:40:01;7;7;
42410;PMS5003;28056;51.112;0.984;2022-08-07T04:42:29;9;9;
42410;PMS5003;28056;51.112;0.984;2022-08-07T04:44:57;10;10;
42410;PMS5003;28056;51.112;0.984;2022-08-07T04:47:28;12;11;
42410;PMS5003;28056;51.112;0.984;2022-08-07T04:50:02;10;10;
42410;PMS5003;28056;51.112;0.984;2022-08-07T04:52:38;9;9;
42410;PMS5003;28056;51.112;0.984;2022-08-07T04:55:12;11;11;
42410;PMS5003;28056;51.112;0.984;2022-08-07T04:57:50;13;11;
42410;PMS5003;28056;51.112;0.984;2022-08-07T05:00:33;11;7;
42410;PMS5003;28056;51.112;0.984;2022-08-07T05:03:13;9;9;
42410;PMS5003;28056;51.112;0.984;2022-08-07T05:05:50;8;8;
42410;PMS5003;28056;51.112;0.984;2022-08-07T05:08:21;10;9;
42410;PMS5003;28056;51.112;0.984;2022-08-07T05:10:55;10;10;
42410;PMS5003;28056;51.112;0.984;2022-08-07T05:13:29;7;7;
42410;PMS5003;28056;51.112;0.984;2022-08-07T05:15:59;9;9;
42410;PMS5003;28056;51.112;0.984;2022-08-07T05:18:29;10;10;
42410;PMS5003;28056;51.112;0.984;2022-08-07T05:21:01;15;14;
42410;PMS5003;28056;51.112;0.984;2022-08-07T05:23:31;16;13;
42410;PMS5003;28056;51.112;0.984;2022-08-07T05:26:04;10;10;
42410;PMS5003;28056;51.112;0.984;2022-08-07T05:28:38;12;11;
42410;PMS5003;28056;51.112;0.984;2022-08-07T05:31:07;9;9;
42410;PMS5003;28056;51.112;0.984;2022-08-07T05:33:37;10;10;
42410;PMS5003;28056;51.112;0.984;2022-08-07T05:36:08;12;12;
42410;PMS5003;28056;51.112;0.984;2022-08-07T05:38:38;10;10;
42410;PMS5003;28056;51.112;0.984;2022-08-07T05:41:06;17;11;
42410;PMS5003;28056;51.112;0.984;2022-08-07T05:43:35;13;11;
42410;PMS5003;28056;51.112;0.984;2022-08-07T05:46:02;12;11;
42410;PMS5003;28056;51.112;0.984;2022-08-07T05:48:30;11;11;
42410;PMS5003;28056;51.112;0.984;2022-08-07T05:50:58;12;10;
42410;PMS5003;28056;51.112;0.984;2022-08-07T05:53:27;11;11;
42410;PMS5003;28056;51.112;0.984;2022-08-07T05:55:54;13;11;
42410;PMS5003;28056;51.112;0.984;2022-08-07T05:58:23;10;10;
42410;PMS5003;28056;51.112;0.984;2022-08-07T06:00:52;13;13;
42410;PMS5003;28056;51.112;0.984;2022-08-07T06:03:20;15;13;
42410;PMS5003;28056;51.112;0.984;2022-08-07T06:05:49;12;11;
42410;PMS5003;28056;51.112;0.984;2022-08-07T06:08:17;11;10;
42410;PMS5003;28056;51.112;0.984;2022-08-07T06:10:45;11;8;
42410;PMS5003;28056;51.112;0.984;2022-08-07T06:13:13;12;10;
42410;PMS5003;28056;51.112;0.984;2022-08-07T06:15:41;8;8;
42410;PMS5003;28056;51.112;0.984;2022-08-07T06:18:10;10;10;
42410;PMS5003;28056;51.112;0.984;2022-08-07T06:20:38;11;11;
42410;PMS5003;28056;51.112;0.984;2022-08-07T06:23:07;8;8;
42410;PMS5003;28056;51.112;0.984;2022-08-07T06:25:36;12;12;
42410;PMS5003;28056;51.112;0.984;2022-08-07T06:28:07;12;12;
42410;PMS5003;28056;51.112;0.984;2022-08-07T06:30:37;14;11;
42410;PMS5003;28056;51.112;0.984;2022-08-07T06:33:06;12;12;
42410;PMS5003;28056;51.112;0.984;2022-08-07T06:35:34;13;13;
42410;PMS5003;28056;51.112;0.984;2022-08-07T06:38:02;8;8;
42410;PMS5003;28056;51.112;0.984;2022-08-07T06:40:32;11;11;
42410;PMS5003;28056;51.112;0.984;2022-08-07T06:43:05;10;8;
42410;PMS5003;28056;51.112;0.984;2022-08-07T06:45:35;12;9;
42410;PMS5003;28056;51.112;0.984;2022-08-07T06:48:04;10;7;
42410;PMS5003;28056;51.112;0.984;2022-08-07T06:50:32;8;7;
42410;PMS5003;28056;51.112;0.984;2022-08-07T06:53:02;7;7;
42410;PMS5003;28056;51.112;0.984;2022-08-07T06:55:32;9;7;
42410;PMS5003;28056;51.112;0.984;2022-08-07T06:58:02;10;9;
42410;PMS5003;28056;51.112;0.984;2022-08-07T07:00:33;9;9;
42410;PMS5003;28056;51.112;0.984;2022-08-07T07:03:04;8;8;
42410;PMS5003;28056;51.112;0.984;2022-08-07T07:05:32;8;7;
42410;PMS5003;28056;51.112;0.984;2022-08-07T07:08:00;8;8;
42410;PMS5003;28056;51.112;0.984;2022-08-07T07:10:27;8;8;
42410;PMS5003;28056;51.112;0.984;2022-08-07T07:12:57;8;8;
42410;PMS5003;28056;51.112;0.984;2022-08-07T07:15:30;8;8;
42410;PMS5003;28056;51.112;0.984;2022-08-07T07:18:05;9;8;
42410;PMS5003;28056;51.112;0.984;2022-08-07T07:20:42;7;7;
42410;PMS5003;28056;51.112;0.984;2022-08-07T07:23:15;10;10;
42410;PMS5003;28056;51.112;0.984;2022-08-07T07:25:43;8;7;
42410;PMS5003;28056;51.112;0.984;2022-08-07T07:28:14;9;9;
42410;PMS5003;28056;51.112;0.984;2022-08-07T07:30:47;10;9;
42410;PMS5003;28056;51.112;0.984;2022-08-07T07:33:17;11;11;
42410;PMS5003;28056;51.112;0.984;2022-08-07T07:35:48;9;9;
42410;PMS5003;28056;51.112;0.984;2022-08-07T07:38:17;9;9;
42410;PMS5003;28056;51.112;0.984;2022-08-07T07:40:47;11;11;
42410;PMS5003;28056;51.112;0.984;2022-08-07T07:43:16;14;12;
42410;PMS5003;28056;51.112;0.984;2022-08-07T07:45:46;10;10;
42410;PMS5003;28056;51.112;0.984;2022-08-07T07:48:18;10;9;
42410;PMS5003;28056;51.112;0.984;2022-08-07T07:50:47;9;9;
42410;PMS5003;28056;51.112;0.984;2022-08-07T07:53:18;10;9;
42410;PMS5003;28056;51.112;0.984;2022-08-07T07:55:47;9;9;
42410;PMS5003;28056;51.112;0.984;2022-08-07T07:58:16;9;9;
42410;PMS5003;28056;51.112;0.984;2022-08-07T08:00:46;7;7;
42410;PMS5003;28056;51.112;0.984;2022-08-07T08:03:16;9;8;
42410;PMS5003;28056;51.112;0.984;2022-08-07T08:05:46;9;7;
42410;PMS5003;28056;51.112;0.984;2022-08-07T08:08:15;9;9;
42410;PMS5003;28056;51.112;0.984;2022-08-07T08:10:43;10;10;
42410;PMS5003;28056;51.112;0.984;2022-08-07T08:13:11;8;7;
42410;PMS5003;28056;51.112;0.984;2022-08-07T08:15:41;12;9;
42410;PMS5003;28056;51.112;0.984;2022-08-07T08:18:12;7;7;
42410;PMS5003;28056;51.112;0.984;2022-08-07T08:20:42;10;10;
42410;PMS5003;28056;51.112;0.984;2022-08-07T08:23:10;11;9;
42410;PMS5003;28056;51.112;0.984;2022-08-07T08:25:40;7;7;
42410;PMS5003;28056;51.112;0.984;2022-08-07T08:28:11;8;8;
42410;PMS5003;28056;51.112;0.984;2022-08-07T08:30:42;6;6;
42410;PMS5003;28056;51.112;0.984;2022-08-07T08:33:12;6;6;
42410;PMS5003;28056;51.112;0.984;2022-08-07T08:35:42;8;8;
42410;PMS5003;28056;51.112;0.984;2022-08-07T08:38:13;9;9;
42410;PMS5003;28056;51.112;0.984;2022-08-07T08:40:47;8;6;
42410;PMS5003;28056;51.112;0.984;2022-08-07T08:43:22;11;8;
42410;PMS5003;28056;51.112;0.984;2022-08-07T08:46:03;8;8;
42410;PMS5003;28056;51.112;0.984;2022-08-07T08:48:39;7;7;
42410;PMS5003;28056;51.112;0.984;2022-08-07T08:51:15;9;9;
42410;PMS5003;28056;51.112;0.984;2022-08-07T08:53:46;9;9;
42410;PMS5003;28056;51.112;0.984;2022-08-07T08:56:18;11;8;
42410;PMS5003;28056;51.112;0.984;2022-08-07T08:58:51;9;7;
42410;PMS5003;28056;51.112;0.984;2022-08-07T09:01:25;8;7;
42410;PMS5003;28056;51.112;0.984;2022-08-07T09:04:04;7;7;
42410;PMS5003;28056;51.112;0.984;2022-08-07T09:06:37;10;10;
42410;PMS5003;28056;51.112;0.984;2022-08-07T09:09:19;7;7;
42410;PMS5003;28056;51.112;0.984;2022-08-07T09:12:11;7;5;
42410;PMS5003;28056;51.112;0.984;2022-08-07T09:14:53;6;6;
42410;PMS5003;28056;51.112;0.984;2022-08-07T09:17:33;8;8;
42410;PMS5003;28056;51.112;0.984;2022-08-07T09:20:11;9;9;
42410;PMS5003;28056;51.112;0.984;2022-08-07T09:22:53;8;7;
42410;PMS5003;28056;51.112;0.984;2022-08-07T09:25:33;7;7;
42410;PMS5003;28056;51.112;0.984;2022-08-07T09:28:10;8;6;
42410;PMS5003;28056;51.112;0.984;2022-08-07T09:30:50;9;9;
42410;PMS5003;28056;51.112;0.984;2022-08-07T09:33:31;9;8;
42410;PMS5003;28056;51.112;0.984;2022-08-07T09:36:11;7;7;
42410;PMS5003;28056;51.112;0.984;2022-08-07T09:38:45;8;8;
42410;PMS5003;28056;51.112;0.984;2022-08-07T09:41:22;6;6;
42410;PMS5003;28056;51.112;0.984;2022-08-07T09:44:00;8;7;
42410;PMS5003;28056;51.112;0.984;2022-08-07T09:46:40;7;7;
42410;PMS5003;28056;51.112;0.984;2022-08-07T09:49:24;7;7;
42410;PMS5003;28056;51.112;0.984;2022-08-07T09:52:11;11;8;
42410;PMS5003;28056;51.112;0.984;2022-08-07T09:54:47;8;6;
42410;PMS5003;28056;51.112;0.984;2022-08-07T09:57:30;8;7;
42410;PMS5003;28056;51.112;0.984;2022-08-07T10:00:14;7;7;
42410;PMS5003;28056;51.112;0.984;2022-08-07T10:03:15;8;8;
42410;PMS5003;28056;51.112;0.984;2022-08-07T10:07:09;7;7;
42410;PMS5003;28056;51.112;0.984;2022-08-07T10:10:06;7;6;
42410;PMS5003;28056;51.112;0.984;2022-08-07T10:12:51;8;7;
42410;PMS5003;28056;51.112;0.984;2022-08-07T10:15:40;10;8;
42410;PMS5003;28056;51.112;0.984;2022-08-07T10:18:23;10;6;
42410;PMS5003;28056;51.112;0.984;2022-08-07T10:21:09;9;7;
42410;PMS5003;28056;51.112;0.984;2022-08-07T10:23:50;8;8;
42410;PMS5003;28056;51.112;0.984;2022-08-07T10:26:30;10;10;
42410;PMS5003;28056;51.112;0.984;2022-08-07T10:29:15;8;7;
42410;PMS5003;28056;51.112;0.984;2022-08-07T10:31:55;8;8;
42410;PMS5003;28056;51.112;0.984;2022-08-07T10:34:38;8;6;
42410;PMS5003;28056;51.112;0.984;2022-08-07T10:37:27;10;7;
42410;PMS5003;28056;51.112;0.984;2022-08-07T10:40:19;7;7;
42410;PMS5003;28056;51.112;0.984;2022-08-07T10:42:55;9;6;
42410;PMS5003;28056;51.112;0.984;2022-08-07T10:45:29;7;6;
42410;PMS5003;28056;51.112;0.984;2022-08-07T10:48:07;8;6;
42410;PMS5003;28056;51.112;0.984;2022-08-07T10:50:46;9;9;
42410;PMS5003;28056;51.112;0.984;2022-08-07T10:53:21;7;7;
42410;PMS5003;28056;51.112;0.984;2022-08-07T10:55:57;8;8;
42410;PMS5003;28056;51.112;0.984;2022-08-07T10:58:38;8;8;
42410;PMS5003;28056;51.112;0.984;2022-08-07T11:01:20;7;7;
42410;PMS5003;28056;51.112;0.984;2022-08-07T11:03:59;10;9;
42410;PMS5003;28056;51.112;0.984;2022-08-07T11:06:35;9;7;
42410;PMS5003;28056;51.112;0.984;2022-08-07T11:09:17;8;8;
42410;PMS5003;28056;51.112;0.984;2022-08-07T11:11:52;9;7;
42410;PMS5003;28056;51.112;0.984;2022-08-07T11:14:29;6;6;
42410;PMS5003;28056;51.112;0.984;2022-08-07T11:17:04;7;6;
42410;PMS5003;28056;51.112;0.984;2022-08-07T11:19:38;8;8;
42410;PMS5003;28056;51.112;0.984;2022-08-07T11:22:15;7;7;
42410;PMS5003;28056;51.112;0.984;2022-08-07T11:24:52;6;6;
42410;PMS5003;28056;51.112;0.984;2022-08-07T11:27:29;7;7;
42410;PMS5003;28056;51.112;0.984;2022-08-07T11:30:06;7;7;
42410;PMS5003;28056;51.112;0.984;2022-08-07T11:32:38;6;6;
42410;PMS5003;28056;51.112;0.984;2022-08-07T11:35:14;7;7;
42410;PMS5003;28056;51.112;0.984;2022-08-07T11:37:49;7;7;
42410;PMS5003;28056;51.112;0.984;2022-08-07T11:40:30;8;8;
42410;PMS5003;28056;51.112;0.984;2022-08-07T11:43:08;8;8;
42410;PMS5003;28056;51.112;0.984;2022-08-07T11:45:47;7;7;
42410;PMS5003;28056;51.112;0.984;2022-08-07T11:48:38;6;6;
42410;PMS5003;28056;51.112;0.984;2022-08-07T11:51:22;7;7;
42410;PMS5003;28056;51.112;0.984;2022-08-07T11:54:18;7;6;
42410;PMS5003;28056;51.112;0.984;2022-08-07T11:56:59;8;8;
42410;PMS5003;28056;51.112;0.984;2022-08-07T11:59:39;7;5;
42410;PMS5003;28056;51.112;0.984;2022-08-07T12:02:23;9;7;
42410;PMS5003;28056;51.112;0.984;2022-08-07T12:05:01;9;8;
42410;PMS5003;28056;51.112;0.984;2022-08-07T12:07:39;8;7;
42410;PMS5003;28056;51.112;0.984;2022-08-07T12:10:14;6;6;
42410;PMS5003;28056;51.112;0.984;2022-08-07T12:12:50;5;5;
42410;PMS5003;28056;51.112;0.984;2022-08-07T12:15:22;8;8;
42410;PMS5003;28056;51.112;0.984;2022-08-07T12:17:55;7;7;
42410;PMS5003;28056;51.112;0.984;2022-08-07T12:20:27;8;7;
42410;PMS5003;28056;51.112;0.984;2022-08-07T12:23:07;8;8;
42410;PMS5003;28056;51.112;0.984;2022-08-07T12:25:49;8;8;
42410;PMS5003;28056;51.112;0.984;2022-08-07T12:28:21;7;7;
42410;PMS5003;28056;51.112;0.984;2022-08-07T12:30:52;8;8;
42410;PMS5003;28056;51.112;0.984;2022-08-07T12:33:27;6;6;
42410;PMS5003;28056;51.112;0.984;2022-08-07T12:35:57;9;8;
42410;PMS5003;28056;51.112;0.984;2022-08-07T12:38:26;5;5;
42410;PMS5003;28056;51.112;0.984;2022-08-07T12:40:54;9;8;
42410;PMS5003;28056;51.112;0.984;2022-08-07T12:43:27;8;8;
42410;PMS5003;28056;51.112;0.984;2022-08-07T12:46:01;9;9;
42410;PMS5003;28056;51.112;0.984;2022-08-07T12:48:38;6;6;
42410;PMS5003;28056;51.112;0.984;2022-08-07T12:51:14;7;7;
42410;PMS5003;28056;51.112;0.984;2022-08-07T12:53:48;7;7;
42410;PMS5003;28056;51.112;0.984;2022-08-07T12:56:23;9;7;
42410;PMS5003;28056;51.112;0.984;2022-08-07T12:58:55;6;6;
42410;PMS5003;28056;51.112;0.984;2022-08-07T13:01:27;5;5;
42410;PMS5003;28056;51.112;0.984;2022-08-07T13:04:11;8;6;
42410;PMS5003;28056;51.112;0.984;2022-08-07T13:07:05;8;8;
42410;PMS5003;28056;51.112;0.984;2022-08-07T13:09:53;5;5;
42410;PMS5003;28056;51.112;0.984;2022-08-07T13:12:40;7;7;
42410;PMS5003;28056;51.112;0.984;2022-08-07T13:15:22;6;6;
42410;PMS5003;28056;51.112;0.984;2022-08-07T13:18:04;6;6;
42410;PMS5003;28056;51.112;0.984;2022-08-07T13:20:44;6;6;
42410;PMS5003;28056;51.112;0.984;2022-08-07T13:23:18;7;7;
42410;PMS5003;28056;51.112;0.984;2022-08-07T13:25:55;6;6;
42410;PMS5003;28056;51.112;0.984;2022-08-07T13:31:16;7;7;
42410;PMS5003;28056;51.112;0.984;2022-08-07T13:33:49;7;7;
42410;PMS5003;28056;51.112;0.984;2022-08-07T13:36:25;6;6;
42410;PMS5003;28056;51.112;0.984;2022-08-07T13:39:02;7;7;
42410;PMS5003;28056;51.112;0.984;2022-08-07T13:41:39;6;4;
42410;PMS5003;28056;51.112;0.984;2022-08-07T13:44:10;5;5;
42410;PMS5003;28056;51.112;0.984;2022-08-07T13:46:40;6;6;
42410;PMS5003;28056;51.112;0.984;2022-08-07T13:49:11;6;6;
42410;PMS5003;28056;51.112;0.984;2022-08-07T13:51:42;5;5;
42410;PMS5003;28056;51.112;0.984;2022-08-07T13:54:13;6;6;
42410;PMS5003;28056;51.112;0.984;2022-08-07T13:56:42;7;7;
42410;PMS5003;28056;51.112;0.984;2022-08-07T13:59:13;12;9;
42410;PMS5003;28056;51.112;0.984;2022-08-07T14:01:49;7;7;
42410;PMS5003;28056;51.112;0.984;2022-08-07T14:04:18;4;4;
42410;PMS5003;28056;51.112;0.984;2022-08-07T14:06:48;7;5;
42410;PMS5003;28056;51.112;0.984;2022-08-07T14:09:19;6;6;
42410;PMS5003;28056;51.112;0.984;2022-08-07T14:11:51;8;7;
42410;PMS5003;28056;51.112;0.984;2022-08-07T14:14:20;6;6;
42410;PMS5003;28056;51.112;0.984;2022-08-07T14:16:54;6;5;
42410;PMS5003;28056;51.112;0.984;2022-08-07T14:19:29;5;5;
42410;PMS5003;28056;51.112;0.984;2022-08-07T14:22:02;7;7;
42410;PMS5003;28056;51.112;0.984;2022-08-07T14:24:33;8;8;
42410;PMS5003;28056;51.112;0.984;2022-08-07T14:27:05;8;8;
42410;PMS5003;28056;51.112;0.984;2022-08-07T14:29:41;6;6;
42410;PMS5003;28056;51.112;0.984;2022-08-07T14:32:14;6;6;
42410;PMS5003;28056;51.112;0.984;2022-08-07T14:34:44;5;5;
42410;PMS5003;28056;51.112;0.984;2022-08-07T14:37:15;6;6;
42410;PMS5003;28056;51.112;0.984;2022-08-07T14:39:44;7;7;
42410;PMS5003;28056;51.112;0.984;2022-08-07T14:42:14;7;7;
42410;PMS5003;28056;51.112;0.984;2022-08-07T14:44:52;6;6;
42410;PMS5003;28056;51.112;0.984;2022-08-07T14:47:23;8;7;
42410;PMS5003;28056;51.112;0.984;2022-08-07T14:49:52;7;6;
42410;PMS5003;28056;51.112;0.984;2022-08-07T14:52:21;6;6;
42410;PMS5003;28056;51.112;0.984;2022-08-07T14:54:50;8;7;
42410;PMS5003;28056;51.112;0.984;2022-08-07T14:57:18;4;4;
42410;PMS5003;28056;51.112;0.984;2022-08-07T14:59:49;7;7;
42410;PMS5003;28056;51.112;0.984;2022-08-07T15:02:20;7;6;
42410;PMS5003;28056;51.112;0.984;2022-08-07T15:04:51;5;5;
42410;PMS5003;28056;51.112;0.984;2022-08-07T15:07:21;9;7;
42410;PMS5003;28056;51.112;0.984;2022-08-07T15:09:50;6;6;
42410;PMS5003;28056;51.112;0.984;2022-08-07T15:12:21;8;7;
42410;PMS5003;28056;51.112;0.984;2022-08-07T15:14:52;7;7;
42410;PMS5003;28056;51.112;0.984;2022-08-07T15:17:25;8;7;
42410;PMS5003;28056;51.112;0.984;2022-08-07T15:19:56;9;9;
42410;PMS5003;28056;51.112;0.984;2022-08-07T15:22:28;7;7;
42410;PMS5003;28056;51.112;0.984;2022-08-07T15:24:59;6;6;
42410;PMS5003;28056;51.112;0.984;2022-08-07T15:27:30;9;9;
42410;PMS5003;28056;51.112;0.984;2022-08-07T15:30:01;8;6;
42410;PMS5003;28056;51.112;0.984;2022-08-07T15:32:38;9;7;
42410;PMS5003;28056;51.112;0.984;2022-08-07T15:35:11;8;6;
42410;PMS5003;28056;51.112;0.984;2022-08-07T15:37:41;8;7;
42410;PMS5003;28056;51.112;0.984;2022-08-07T15:40:14;7;6;
42410;PMS5003;28056;51.112;0.984;2022-08-07T15:42:48;7;7;
42410;PMS5003;28056;51.112;0.984;2022-08-07T15:45:29;7;6;
42410;PMS5003;28056;51.112;0.984;2022-08-07T15:48:02;6;6;
42410;PMS5003;28056;51.112;0.984;2022-08-07T15:50:34;8;8;
42410;PMS5003;28056;51.112;0.984;2022-08-07T15:53:06;6;6;
42410;PMS5003;28056;51.112;0.984;2022-08-07T15:55:35;7;6;
42410;PMS5003;28056;51.112;0.984;2022-08-07T15:58:03;8;8;
42410;PMS5003;28056;51.112;0.984;2022-08-07T16:00:34;11;7;
42410;PMS5003;28056;51.112;0.984;2022-08-07T16:03:04;7;7;
42410;PMS5003;28056;51.112;0.984;2022-08-07T16:05:37;6;6;
42410;PMS5003;28056;51.112;0.984;2022-08-07T16:08:11;9;8;
42410;PMS5003;28056;51.112;0.984;2022-08-07T16:10:41;8;8;
42410;PMS5003;28056;51.112;0.984;2022-08-07T16:14:19;7;7;
42410;PMS5003;28056;51.112;0.984;2022-08-07T16:17:02;6;6;
42410;PMS5003;28056;51.112;0.984;2022-08-07T16:20:48;9;9;
42410;PMS5003;28056;51.112;0.984;2022-08-07T16:23:28;6;6;
42410;PMS5003;28056;51.112;0.984;2022-08-07T16:26:11;6;6;
42410;PMS5003;28056;51.112;0.984;2022-08-07T16:28:56;7;7;
42410;PMS5003;28056;51.112;0.984;2022-08-07T16:31:38;11;8;
42410;PMS5003;28056;51.112;0.984;2022-08-07T16:34:14;8;8;
42410;PMS5003;28056;51.112;0.984;2022-08-07T16:36:55;11;8;
42410;PMS5003;28056;51.112;0.984;2022-08-07T16:39:17;11;8;
42410;PMS5003;28056;51.112;0.984;2022-08-07T16:42:02;7;7;
42410;PMS5003;28056;51.112;0.984;2022-08-07T16:44:53;8;7;
42410;PMS5003;28056;51.112;0.984;2022-08-07T16:49:47;9;9;
42410;PMS5003;28056;51.112;0.984;2022-08-07T16:52:34;8;8;
42410;PMS5003;28056;51.112;0.984;2022-08-07T16:55:22;9;8;
42410;PMS5003;28056;51.112;0.984;2022-08-07T16:57:58;8;7;
42410;PMS5003;28056;51.112;0.984;2022-08-07T17:00:32;9;9;
42410;PMS5003;28056;51.112;0.984;2022-08-07T17:03:25;13;10;
42410;PMS5003;28056;51.112;0.984;2022-08-07T17:06:06;12;12;
42410;PMS5003;28056;51.112;0.984;2022-08-07T17:08:40;10;8;
42410;PMS5003;28056;51.112;0.984;2022-08-07T17:11:17;10;10;
42410;PMS5003;28056;51.112;0.984;2022-08-07T17:13:59;10;8;
42410;PMS5003;28056;51.112;0.984;2022-08-07T17:16:38;8;8;
42410;PMS5003;28056;51.112;0.984;2022-08-07T17:19:16;9;8;
42410;PMS5003;28056;51.112;0.984;2022-08-07T17:21:49;9;8;
42410;PMS5003;28056;51.112;0.984;2022-08-07T17:24:30;12;11;
42410;PMS5003;28056;51.112;0.984;2022-08-07T17:27:12;8;8;
42410;PMS5003;28056;51.112;0.984;2022-08-07T17:29:51;10;8;
42410;PMS5003;28056;51.112;0.984;2022-08-07T17:32:30;11;9;